sensor_id;sensor_type;location;lat;lon;timestamp;pressure;altitude;pressure_sealevel;temperature;humidity
40596;BME280;26304;48.794;9.820;2023-09-08T00:00:44;96665.06;;;19.77;60.96
40596;BME280;26304;48.794;9.820;2023-09-08T00:03:06;96668.88;;;19.80;61.07
40596;BME280;26304;48.794;9.820;2023-09-08T00:05:29;96674.81;;;19.70;61.08
40596;BME280;26304;48.794;9.820;2023-09-08T00:07:51;96662.44;;;19.77;60.94
40596;BME280;26304;48.794;9.820;2023-09-08T00:10:14;96672.53;;;19.72;61.17
40596;BME280;26304;48.794;9.820;2023-09-08T00:12:37;96666.22;;;19.80;60.82
40596;BME280;26304;48.794;9.820;2023-09-08T00:15:00;96666.16;;;19.73;60.85
40596;BME280;26304;48.794;9.820;2023-09-08T00:17:22;96656.78;;;19.79;60.64
40596;BME280;26304;48.794;9.820;2023-09-08T00:19:45;96655.31;;;19.82;60.82
40596;BME280;26304;48.794;9.820;2023-09-08T00:22:07;96659.06;;;19.84;60.70
40596;BME280;26304;48.794;9.820;2023-09-08T00:24:30;96656.78;;;19.79;60.90
40596;BME280;26304;48.794;9.820;2023-09-08T00:26:52;96661.69;;;19.77;61.04
40596;BME280;26304;48.794;9.820;2023-09-08T00:29:16;96654.44;;;19.70;61.07
40596;BME280;26304;48.794;9.820;2023-09-08T00:31:38;96651.44;;;19.72;61.10
40596;BME280;26304;48.794;9.820;2023-09-08T00:34:01;96658.31;;;19.80;60.72
40596;BME280;26304;48.794;9.820;2023-09-08T00:36:23;96653.78;;;19.81;60.60
40596;BME280;26304;48.794;9.820;2023-09-08T00:38:45;96659.41;;;19.75;60.80
40596;BME280;26304;48.794;9.820;2023-09-08T00:41:08;96656.06;;;19.82;60.46
40596;BME280;26304;48.794;9.820;2023-09-08T00:43:30;96654.16;;;19.79;60.58
40596;BME280;26304;48.794;9.820;2023-09-08T00:45:54;96653.03;;;19.80;60.50
40596;BME280;26304;48.794;9.820;2023-09-08T00:48:20;96646.97;;;19.76;60.99
40596;BME280;26304;48.794;9.820;2023-09-08T00:50:42;96650.00;;;19.78;60.64
40596;BME280;26304;48.794;9.820;2023-09-08T00:53:05;96643.59;;;19.79;60.55
40596;BME280;26304;48.794;9.820;2023-09-08T00:55:28;96650.00;;;19.78;60.72
40596;BME280;26304;48.794;9.820;2023-09-08T00:57:50;96647.72;;;19.76;60.78
40596;BME280;26304;48.794;9.820;2023-09-08T01:00:14;96649.19;;;19.70;60.93
40596;BME280;26304;48.794;9.820;2023-09-08T01:02:37;96652.22;;;19.72;61.06
40596;BME280;26304;48.794;9.820;2023-09-08T01:05:00;96648.81;;;19.72;61.31
40596;BME280;26304;48.794;9.820;2023-09-08T01:07:22;96649.53;;;19.69;61.31
40596;BME280;26304;48.794;9.820;2023-09-08T01:09:45;96645.78;;;19.70;61.24
40596;BME280;26304;48.794;9.820;2023-09-08T01:12:09;96650.69;;;19.68;61.24
40596;BME280;26304;48.794;9.820;2023-09-08T01:14:31;96649.19;;;19.70;61.03
40596;BME280;26304;48.794;9.820;2023-09-08T01:16:53;96652.16;;;19.58;61.60
40596;BME280;26304;48.794;9.820;2023-09-08T01:19:18;96647.56;;;19.51;61.68
40596;BME280;26304;48.794;9.820;2023-09-08T01:22:07;96647.63;;;19.58;61.62
40596;BME280;26304;48.794;9.820;2023-09-08T01:27:25;96649.06;;;19.45;62.42
40596;BME280;26304;48.794;9.820;2023-09-08T01:29:50;96641.53;;;19.44;62.39
40596;BME280;26304;48.794;9.820;2023-09-08T01:32:14;96638.47;;;19.34;62.77
40596;BME280;26304;48.794;9.820;2023-09-08T01:34:37;96634.72;;;19.39;62.63
40596;BME280;26304;48.794;9.820;2023-09-08T01:37:00;96641.50;;;19.40;62.60
40596;BME280;26304;48.794;9.820;2023-09-08T01:39:25;96641.13;;;19.41;62.68
40596;BME280;26304;48.794;9.820;2023-09-08T01:41:47;96640.75;;;19.43;62.80
40596;BME280;26304;48.794;9.820;2023-09-08T01:44:11;96640.00;;;19.39;62.98
40596;BME280;26304;48.794;9.820;2023-09-08T01:46:33;96632.84;;;19.39;63.20
40596;BME280;26304;48.794;9.820;2023-09-08T01:48:56;96636.94;;;19.30;63.64
40596;BME280;26304;48.794;9.820;2023-09-08T01:51:18;96636.53;;;19.28;63.65
40596;BME280;26304;48.794;9.820;2023-09-08T01:53:40;96639.19;;;19.31;63.36
40596;BME280;26304;48.794;9.820;2023-09-08T01:56:03;96643.34;;;19.32;63.22
40596;BME280;26304;48.794;9.820;2023-09-08T01:58:25;96641.41;;;19.26;63.53
40596;BME280;26304;48.794;9.820;2023-09-08T02:00:50;96648.91;;;19.20;63.82
40596;BME280;26304;48.794;9.820;2023-09-08T02:03:13;96648.56;;;19.21;63.73
40596;BME280;26304;48.794;9.820;2023-09-08T02:05:36;96645.16;;;19.21;63.77
40596;BME280;26304;48.794;9.820;2023-09-08T02:08:00;96637.56;;;19.12;63.95
40596;BME280;26304;48.794;9.820;2023-09-08T02:10:22;96646.56;;;19.08;64.21
40596;BME280;26304;48.794;9.820;2023-09-08T02:12:44;96639.41;;;19.08;64.39
40596;BME280;26304;48.794;9.820;2023-09-08T02:15:08;96629.22;;;19.03;64.67
40596;BME280;26304;48.794;9.820;2023-09-08T02:17:33;96631.91;;;19.10;64.29
40596;BME280;26304;48.794;9.820;2023-09-08T02:19:56;96634.91;;;19.09;64.47
40596;BME280;26304;48.794;9.820;2023-09-08T02:22:18;96627.38;;;19.07;64.55
40596;BME280;26304;48.794;9.820;2023-09-08T02:24:40;96634.50;;;19.03;64.71
40596;BME280;26304;48.794;9.820;2023-09-08T02:27:03;96629.28;;;19.10;64.68
40596;BME280;26304;48.794;9.820;2023-09-08T02:29:26;96631.13;;;19.06;64.76
40596;BME280;26304;48.794;9.820;2023-09-08T02:31:48;96631.13;;;19.06;64.59
40596;BME280;26304;48.794;9.820;2023-09-08T02:34:12;96630.00;;;19.03;64.79
40596;BME280;26304;48.794;9.820;2023-09-08T02:36:34;96632.63;;;19.03;64.47
40596;BME280;26304;48.794;9.820;2023-09-08T02:38:56;96637.91;;;19.07;64.45
40596;BME280;26304;48.794;9.820;2023-09-08T02:41:18;96626.19;;;18.97;64.99
40596;BME280;26304;48.794;9.820;2023-09-08T02:43:41;96640.84;;;18.95;65.01
40596;BME280;26304;48.794;9.820;2023-09-08T02:46:03;96635.19;;;18.93;64.72
40596;BME280;26304;48.794;9.820;2023-09-08T02:48:25;96635.13;;;18.85;64.95
40596;BME280;26304;48.794;9.820;2023-09-08T02:50:49;96630.91;;;18.77;65.26
40596;BME280;26304;48.794;9.820;2023-09-08T02:53:12;96637.22;;;18.69;65.21
40596;BME280;26304;48.794;9.820;2023-09-08T02:55:34;96634.53;;;18.62;65.45
40596;BME280;26304;48.794;9.820;2023-09-08T02:57:57;96631.47;;;18.56;65.41
40596;BME280;26304;48.794;9.820;2023-09-08T03:00:21;96633.78;;;18.65;64.98
40596;BME280;26304;48.794;9.820;2023-09-08T03:02:46;96628.94;;;18.67;64.79
40596;BME280;26304;48.794;9.820;2023-09-08T03:05:08;96631.16;;;18.65;65.05
40596;BME280;26304;48.794;9.820;2023-09-08T03:07:32;96625.50;;;18.59;65.11
40596;BME280;26304;48.794;9.820;2023-09-08T03:09:58;96631.13;;;18.58;65.52
40596;BME280;26304;48.794;9.820;2023-09-08T03:12:20;96630.38;;;18.57;65.38
40596;BME280;26304;48.794;9.820;2023-09-08T03:14:43;96627.31;;;18.51;65.42
40596;BME280;26304;48.794;9.820;2023-09-08T03:17:06;96625.78;;;18.50;66.16
40596;BME280;26304;48.794;9.820;2023-09-08T03:19:28;96629.72;;;18.71;65.14
40596;BME280;26304;48.794;9.820;2023-09-08T03:21:50;96620.84;;;18.90;64.50
40596;BME280;26304;48.794;9.820;2023-09-08T03:24:14;96618.31;;;19.04;64.36
40596;BME280;26304;48.794;9.820;2023-09-08T03:26:37;96627.41;;;19.11;63.81
40596;BME280;26304;48.794;9.820;2023-09-08T03:29:01;96616.13;;;19.14;63.90
40596;BME280;26304;48.794;9.820;2023-09-08T03:31:24;96627.03;;;19.12;63.76
40596;BME280;26304;48.794;9.820;2023-09-08T03:33:48;96620.97;;;19.08;64.12
40596;BME280;26304;48.794;9.820;2023-09-08T03:36:11;96621.41;;;19.17;63.94
40596;BME280;26304;48.794;9.820;2023-09-08T03:38:33;96616.13;;;19.17;63.79
40596;BME280;26304;48.794;9.820;2023-09-08T03:40:59;96610.13;;;19.20;63.73
40596;BME280;26304;48.794;9.820;2023-09-08T03:43:22;96611.22;;;19.12;63.96
40596;BME280;26304;48.794;9.820;2023-09-08T03:45:45;96615.38;;;19.13;64.07
40596;BME280;26304;48.794;9.820;2023-09-08T03:48:08;96612.00;;;19.16;63.84
40596;BME280;26304;48.794;9.820;2023-09-08T03:50:30;96611.28;;;19.23;63.71
40596;BME280;26304;48.794;9.820;2023-09-08T03:52:53;96610.56;;;19.26;63.48
40596;BME280;26304;48.794;9.820;2023-09-08T03:55:15;96614.31;;;19.29;63.55
40596;BME280;26304;48.794;9.820;2023-09-08T03:57:40;96613.19;;;19.26;63.68
40596;BME280;26304;48.794;9.820;2023-09-08T04:00:03;96614.69;;;19.23;63.70
40596;BME280;26304;48.794;9.820;2023-09-08T04:02:27;96617.38;;;19.38;62.96
40596;BME280;26304;48.794;9.820;2023-09-08T04:04:49;96611.50;;;19.63;62.62
40596;BME280;26304;48.794;9.820;2023-09-08T04:07:12;96620.63;;;19.83;62.24
40596;BME280;26304;48.794;9.820;2023-09-08T04:09:34;96619.16;;;19.96;62.01
40596;BME280;26304;48.794;9.820;2023-09-08T04:11:57;96620.66;;;19.90;62.02
40596;BME280;26304;48.794;9.820;2023-09-08T04:14:21;96619.13;;;19.89;61.92
40596;BME280;26304;48.794;9.820;2023-09-08T04:16:44;96622.19;;;19.95;61.60
40596;BME280;26304;48.794;9.820;2023-09-08T04:19:07;96621.44;;;20.02;61.77
40596;BME280;26304;48.794;9.820;2023-09-08T04:21:29;96631.28;;;20.12;61.34
40596;BME280;26304;48.794;9.820;2023-09-08T04:23:51;96625.22;;;20.04;61.12
40596;BME280;26304;48.794;9.820;2023-09-08T04:26:14;96622.03;;;19.63;62.55
40596;BME280;26304;48.794;9.820;2023-09-08T04:28:36;96613.72;;;19.60;62.57
40596;BME280;26304;48.794;9.820;2023-09-08T04:31:00;96617.47;;;19.52;62.34
40596;BME280;26304;48.794;9.820;2023-09-08T04:33:23;96618.19;;;19.49;62.52
40596;BME280;26304;48.794;9.820;2023-09-08T04:35:45;96618.19;;;19.53;62.36
40596;BME280;26304;48.794;9.820;2023-09-08T04:38:08;96619.38;;;19.59;62.15
40596;BME280;26304;48.794;9.820;2023-09-08T04:40:30;96615.97;;;19.55;62.25
40596;BME280;26304;48.794;9.820;2023-09-08T04:42:52;96621.25;;;19.55;62.13
40596;BME280;26304;48.794;9.820;2023-09-08T04:45:15;96628.78;;;19.56;62.01
40596;BME280;26304;48.794;9.820;2023-09-08T04:47:38;96625.41;;;19.59;61.69
40596;BME280;26304;48.794;9.820;2023-09-08T04:50:01;96623.88;;;19.58;61.71
40596;BME280;26304;48.794;9.820;2023-09-08T04:52:24;96630.66;;;19.56;61.72
40596;BME280;26304;48.794;9.820;2023-09-08T04:54:47;96630.69;;;19.59;61.85
40596;BME280;26304;48.794;9.820;2023-09-08T04:57:09;96625.06;;;19.65;61.49
40596;BME280;26304;48.794;9.820;2023-09-08T04:59:31;96632.22;;;19.68;61.16
40596;BME280;26304;48.794;9.820;2023-09-08T05:01:54;96634.06;;;19.60;61.73
40596;BME280;26304;48.794;9.820;2023-09-08T05:04:19;96637.44;;;19.60;61.75
40596;BME280;26304;48.794;9.820;2023-09-08T05:06:41;96633.34;;;19.67;61.41
40596;BME280;26304;48.794;9.820;2023-09-08T05:09:04;96638.63;;;19.67;61.56
40596;BME280;26304;48.794;9.820;2023-09-08T05:11:28;96641.63;;;19.69;61.17
40596;BME280;26304;48.794;9.820;2023-09-08T05:13:50;96637.44;;;19.60;61.16
40596;BME280;26304;48.794;9.820;2023-09-08T05:16:13;96644.69;;;19.71;61.13
40596;BME280;26304;48.794;9.820;2023-09-08T05:18:35;96644.03;;;19.95;60.56
40596;BME280;26304;48.794;9.820;2023-09-08T05:20:59;96639.53;;;20.07;60.60
40596;BME280;26304;48.794;9.820;2023-09-08T05:23:21;96633.88;;;20.05;60.29
40596;BME280;26304;48.794;9.820;2023-09-08T05:25:44;96640.28;;;20.04;60.38
40596;BME280;26304;48.794;9.820;2023-09-08T05:28:07;96647.09;;;20.08;60.36
40596;BME280;26304;48.794;9.820;2023-09-08T05:30:29;96650.13;;;20.10;60.45
40596;BME280;26304;48.794;9.820;2023-09-08T05:32:52;96650.09;;;20.03;60.57
40596;BME280;26304;48.794;9.820;2023-09-08T05:35:14;96656.53;;;20.06;60.77
40596;BME280;26304;48.794;9.820;2023-09-08T05:37:38;96654.63;;;20.06;60.43
40596;BME280;26304;48.794;9.820;2023-09-08T05:40:00;96661.78;;;20.06;60.70
40596;BME280;26304;48.794;9.820;2023-09-08T05:42:23;96665.19;;;20.03;60.79
40596;BME280;26304;48.794;9.820;2023-09-08T05:44:46;96662.16;;;20.04;60.86
40596;BME280;26304;48.794;9.820;2023-09-08T05:47:09;96665.56;;;20.05;60.82
40596;BME280;26304;48.794;9.820;2023-09-08T05:49:31;96655.75;;;20.05;60.94
40596;BME280;26304;48.794;9.820;2023-09-08T05:51:53;96659.91;;;20.10;60.65
40596;BME280;26304;48.794;9.820;2023-09-08T05:54:17;96655.00;;;20.08;60.78
40596;BME280;26304;48.794;9.820;2023-09-08T05:56:39;96659.53;;;20.11;60.77
40596;BME280;26304;48.794;9.820;2023-09-08T05:59:02;96665.19;;;20.13;60.72
40596;BME280;26304;48.794;9.820;2023-09-08T06:01:24;96653.88;;;20.13;60.71
40596;BME280;26304;48.794;9.820;2023-09-08T06:03:47;96658.06;;;20.21;60.41
40596;BME280;26304;48.794;9.820;2023-09-08T06:06:09;96655.41;;;20.21;60.56
40596;BME280;26304;48.794;9.820;2023-09-08T06:08:32;96658.44;;;20.23;60.60
40596;BME280;26304;48.794;9.820;2023-09-08T06:10:55;96653.53;;;20.25;60.58
40596;BME280;26304;48.794;9.820;2023-09-08T06:13:18;96655.81;;;20.23;60.76
40596;BME280;26304;48.794;9.820;2023-09-08T06:15:40;96659.19;;;20.24;60.56
40596;BME280;26304;48.794;9.820;2023-09-08T06:18:03;96656.56;;;20.31;60.57
40596;BME280;26304;48.794;9.820;2023-09-08T06:20:25;96655.06;;;20.33;60.50
40596;BME280;26304;48.794;9.820;2023-09-08T06:22:49;96647.91;;;20.27;60.62
40596;BME280;26304;48.794;9.820;2023-09-08T06:25:11;96656.56;;;20.31;60.54
40596;BME280;26304;48.794;9.820;2023-09-08T06:27:35;96657.34;;;20.28;60.87
40596;BME280;26304;48.794;9.820;2023-09-08T06:29:57;96649.38;;;20.21;60.69
40596;BME280;26304;48.794;9.820;2023-09-08T06:32:20;96653.19;;;20.23;60.56
40596;BME280;26304;48.794;9.820;2023-09-08T06:34:44;96648.28;;;20.25;60.65
40596;BME280;26304;48.794;9.820;2023-09-08T06:37:06;96652.81;;;20.25;60.41
40596;BME280;26304;48.794;9.820;2023-09-08T06:39:29;96656.94;;;20.22;60.67
40596;BME280;26304;48.794;9.820;2023-09-08T06:41:52;96653.19;;;20.23;60.80
40596;BME280;26304;48.794;9.820;2023-09-08T06:44:15;96656.19;;;20.22;60.78
40596;BME280;26304;48.794;9.820;2023-09-08T06:46:38;96659.94;;;20.24;60.50
40596;BME280;26304;48.794;9.820;2023-09-08T06:49:00;96665.22;;;20.24;60.63
40596;BME280;26304;48.794;9.820;2023-09-08T06:51:23;96665.22;;;20.24;60.80
40596;BME280;26304;48.794;9.820;2023-09-08T06:53:53;96662.22;;;20.26;60.57
40596;BME280;26304;48.794;9.820;2023-09-08T06:56:16;96664.47;;;20.27;60.82
40596;BME280;26304;48.794;9.820;2023-09-08T06:58:38;96664.09;;;20.25;60.54
40596;BME280;26304;48.794;9.820;2023-09-08T07:01:02;96663.00;;;20.26;61.11
40596;BME280;26304;48.794;9.820;2023-09-08T07:03:25;96665.63;;;20.26;60.95
40596;BME280;26304;48.794;9.820;2023-09-08T07:05:48;96656.94;;;20.26;60.69
40596;BME280;26304;48.794;9.820;2023-09-08T07:08:11;96668.28;;;20.26;61.08
40596;BME280;26304;48.794;9.820;2023-09-08T07:10:33;96668.28;;;20.26;60.96
40596;BME280;26304;48.794;9.820;2023-09-08T07:12:56;96665.63;;;20.30;60.94
40596;BME280;26304;48.794;9.820;2023-09-08T07:15:18;96666.00;;;20.28;60.84
40596;BME280;26304;48.794;9.820;2023-09-08T07:17:42;96664.13;;;20.29;60.81
40596;BME280;26304;48.794;9.820;2023-09-08T07:20:05;96671.66;;;20.30;61.11
40596;BME280;26304;48.794;9.820;2023-09-08T07:22:28;96667.16;;;20.35;60.84
40596;BME280;26304;48.794;9.820;2023-09-08T07:24:50;96665.25;;;20.31;61.04
40596;BME280;26304;48.794;9.820;2023-09-08T07:27:13;96671.28;;;20.36;61.04
40596;BME280;26304;48.794;9.820;2023-09-08T07:29:36;96663.00;;;20.37;61.00
40596;BME280;26304;48.794;9.820;2023-09-08T07:31:58;96663.75;;;20.38;60.95
40596;BME280;26304;48.794;9.820;2023-09-08T07:34:22;96665.66;;;20.41;61.01
40596;BME280;26304;48.794;9.820;2023-09-08T07:36:44;96658.13;;;20.39;61.23
40596;BME280;26304;48.794;9.820;2023-09-08T07:39:07;96656.22;;;20.40;61.09
40596;BME280;26304;48.794;9.820;2023-09-08T07:41:29;96657.75;;;20.41;61.30
40596;BME280;26304;48.794;9.820;2023-09-08T07:43:51;96660.75;;;20.43;61.16
40596;BME280;26304;48.794;9.820;2023-09-08T07:46:14;96659.22;;;20.42;60.90
40596;BME280;26304;48.794;9.820;2023-09-08T07:48:36;96657.75;;;20.41;60.69
40596;BME280;26304;48.794;9.820;2023-09-08T07:51:00;96657.75;;;20.41;60.92
40596;BME280;26304;48.794;9.820;2023-09-08T07:53:23;96665.66;;;20.41;60.52
40596;BME280;26304;48.794;9.820;2023-09-08T07:55:45;96661.13;;;20.45;60.76
40596;BME280;26304;48.794;9.820;2023-09-08T07:58:08;96663.41;;;20.43;60.73
40596;BME280;26304;48.794;9.820;2023-09-08T08:00:30;96651.31;;;20.42;60.89
40596;BME280;26304;48.794;9.820;2023-09-08T08:02:54;96654.72;;;20.42;60.76
40596;BME280;26304;48.794;9.820;2023-09-08T08:05:17;96657.00;;;20.44;60.72
40596;BME280;26304;48.794;9.820;2023-09-08T08:07:41;96660.00;;;20.46;60.67
40596;BME280;26304;48.794;9.820;2023-09-08T08:10:05;96656.22;;;20.47;61.01
40596;BME280;26304;48.794;9.820;2023-09-08T08:12:27;96663.78;;;20.52;60.96
40596;BME280;26304;48.794;9.820;2023-09-08T08:14:50;96659.63;;;20.47;60.86
40596;BME280;26304;48.794;9.820;2023-09-08T08:17:12;96661.91;;;20.49;60.81
40596;BME280;26304;48.794;9.820;2023-09-08T08:19:35;96657.72;;;20.48;60.81
40596;BME280;26304;48.794;9.820;2023-09-08T08:21:57;96660.00;;;20.49;61.07
40596;BME280;26304;48.794;9.820;2023-09-08T08:24:21;96659.25;;;20.49;61.03
40596;BME280;26304;48.794;9.820;2023-09-08T08:26:43;96663.38;;;20.50;60.95
40596;BME280;26304;48.794;9.820;2023-09-08T08:29:06;96658.13;;;20.54;60.89
40596;BME280;26304;48.794;9.820;2023-09-08T08:31:28;96663.41;;;20.54;60.90
40596;BME280;26304;48.794;9.820;2023-09-08T08:33:51;96659.63;;;20.51;60.88
40596;BME280;26304;48.794;9.820;2023-09-08T08:36:13;96658.88;;;20.54;60.69
40596;BME280;26304;48.794;9.820;2023-09-08T08:38:36;96663.78;;;20.56;60.67
40596;BME280;26304;48.794;9.820;2023-09-08T08:41:03;96659.25;;;20.56;60.61
40596;BME280;26304;48.794;9.820;2023-09-08T08:43:27;96664.53;;;20.56;60.80
40596;BME280;26304;48.794;9.820;2023-09-08T08:45:50;96661.53;;;20.58;60.86
40596;BME280;26304;48.794;9.820;2023-09-08T08:48:13;96660.41;;;20.59;60.64
40596;BME280;26304;48.794;9.820;2023-09-08T08:50:38;96653.97;;;20.60;60.84
40596;BME280;26304;48.794;9.820;2023-09-08T08:53:04;96655.47;;;20.61;60.92
40596;BME280;26304;48.794;9.820;2023-09-08T08:55:26;96650.19;;;20.61;60.81
40596;BME280;26304;48.794;9.820;2023-09-08T08:57:52;96650.94;;;20.61;60.86
40596;BME280;26304;48.794;9.820;2023-09-08T09:00:15;96651.72;;;20.62;60.88
40596;BME280;26304;48.794;9.820;2023-09-08T09:02:40;96651.34;;;20.63;60.81
40596;BME280;26304;48.794;9.820;2023-09-08T09:05:04;96650.22;;;20.64;60.97
40596;BME280;26304;48.794;9.820;2023-09-08T09:07:27;96646.47;;;20.65;60.99
40596;BME280;26304;48.794;9.820;2023-09-08T09:09:50;96653.25;;;20.66;60.93
40596;BME280;26304;48.794;9.820;2023-09-08T09:12:13;96654.75;;;20.67;61.18
40596;BME280;26304;48.794;9.820;2023-09-08T09:14:36;96655.53;;;20.68;61.02
40596;BME280;26304;48.794;9.820;2023-09-08T09:16:59;96653.25;;;20.70;61.01
40596;BME280;26304;48.794;9.820;2023-09-08T09:19:23;96656.28;;;20.72;61.09
40596;BME280;26304;48.794;9.820;2023-09-08T09:21:48;96659.31;;;20.74;60.99
40596;BME280;26304;48.794;9.820;2023-09-08T09:24:15;96654.78;;;20.78;60.98
40596;BME280;26304;48.794;9.820;2023-09-08T09:26:38;96657.03;;;20.73;61.28
40596;BME280;26304;48.794;9.820;2023-09-08T09:29:00;96658.16;;;20.72;61.25
40596;BME280;26304;48.794;9.820;2023-09-08T09:31:25;96655.53;;;20.68;61.82
40596;BME280;26304;48.794;9.820;2023-09-08T09:33:47;96645.72;;;20.65;61.96
40596;BME280;26304;48.794;9.820;2023-09-08T09:36:19;96649.88;;;20.70;61.48
40596;BME280;26304;48.794;9.820;2023-09-08T09:38:43;96652.50;;;20.73;61.37
40596;BME280;26304;48.794;9.820;2023-09-08T09:41:05;96647.59;;;20.75;61.11
40596;BME280;26304;48.794;9.820;2023-09-08T09:43:28;96651.38;;;20.78;61.28
40596;BME280;26304;48.794;9.820;2023-09-08T09:45:51;96649.84;;;20.80;60.98
40596;BME280;26304;48.794;9.820;2023-09-08T09:48:19;96649.47;;;20.82;61.08
40596;BME280;26304;48.794;9.820;2023-09-08T09:50:44;96649.88;;;20.84;61.11
40596;BME280;26304;48.794;9.820;2023-09-08T09:53:11;96656.28;;;20.83;61.14
40596;BME280;26304;48.794;9.820;2023-09-08T09:55:34;96650.25;;;20.82;61.32
40596;BME280;26304;48.794;9.820;2023-09-08T09:57:59;96650.25;;;20.82;61.08
40596;BME280;26304;48.794;9.820;2023-09-08T10:00:25;96651.00;;;20.86;61.25
40596;BME280;26304;48.794;9.820;2023-09-08T10:02:49;96643.44;;;20.99;61.45
40596;BME280;26304;48.794;9.820;2023-09-08T10:05:13;96648.34;;;21.12;61.69
40596;BME280;26304;48.794;9.820;2023-09-08T10:07:36;96648.69;;;21.25;62.28
40596;BME280;26304;48.794;9.820;2023-09-08T10:09:58;96647.19;;;21.23;61.98
40596;BME280;26304;48.794;9.820;2023-09-08T10:12:20;96646.41;;;21.27;61.76
40596;BME280;26304;48.794;9.820;2023-09-08T10:14:45;96653.22;;;21.38;62.30
40596;BME280;26304;48.794;9.820;2023-09-08T10:17:15;96657.72;;;21.38;62.05
40596;BME280;26304;48.794;9.820;2023-09-08T10:19:38;96648.66;;;21.39;62.37
40596;BME280;26304;48.794;9.820;2023-09-08T10:22:04;96655.09;;;21.41;62.06
40596;BME280;26304;48.794;9.820;2023-09-08T10:24:31;96642.63;;;21.38;62.05
40596;BME280;26304;48.794;9.820;2023-09-08T10:26:59;96640.34;;;21.40;61.91
40596;BME280;26304;48.794;9.820;2023-09-08T10:29:22;96639.97;;;21.42;61.91
40596;BME280;26304;48.794;9.820;2023-09-08T10:31:46;96639.22;;;21.41;61.98
40596;BME280;26304;48.794;9.820;2023-09-08T10:34:09;96636.19;;;21.39;62.00
40596;BME280;26304;48.794;9.820;2023-09-08T10:36:34;96636.19;;;21.39;62.10
40596;BME280;26304;48.794;9.820;2023-09-08T10:41:29;96629.78;;;21.51;61.97
40596;BME280;26304;48.794;9.820;2023-09-08T10:43:55;96635.03;;;21.55;62.02
40596;BME280;26304;48.794;9.820;2023-09-08T10:46:21;96625.59;;;21.57;61.42
40596;BME280;26304;48.794;9.820;2023-09-08T10:48:44;96625.59;;;21.61;61.54
40596;BME280;26304;48.794;9.820;2023-09-08T10:51:12;96621.41;;;21.60;61.52
40596;BME280;26304;48.794;9.820;2023-09-08T10:53:37;96622.56;;;21.63;61.65
40596;BME280;26304;48.794;9.820;2023-09-08T10:55:59;96626.34;;;21.65;61.78
40596;BME280;26304;48.794;9.820;2023-09-08T10:58:30;96618.41;;;21.65;61.88
40596;BME280;26304;48.794;9.820;2023-09-08T11:00:59;96622.19;;;21.57;61.84
40596;BME280;26304;48.794;9.820;2023-09-08T11:03:26;96625.94;;;21.63;61.66
40596;BME280;26304;48.794;9.820;2023-09-08T11:05:49;96613.84;;;21.66;61.83
40596;BME280;26304;48.794;9.820;2023-09-08T11:08:12;96617.63;;;21.61;61.95
40596;BME280;26304;48.794;9.820;2023-09-08T11:10:35;96615.41;;;21.56;62.03
40596;BME280;26304;48.794;9.820;2023-09-08T11:12:58;96619.19;;;21.55;62.35
40596;BME280;26304;48.794;9.820;2023-09-08T11:15:24;96613.53;;;21.53;62.67
40596;BME280;26304;48.794;9.820;2023-09-08T11:17:47;96618.06;;;21.52;62.42
40596;BME280;26304;48.794;9.820;2023-09-08T11:20:12;96617.66;;;21.54;62.47
40596;BME280;26304;48.794;9.820;2023-09-08T11:22:35;96621.47;;;21.53;62.60
40596;BME280;26304;48.794;9.820;2023-09-08T11:24:58;96623.72;;;21.54;62.49
40596;BME280;26304;48.794;9.820;2023-09-08T11:27:21;96618.00;;;21.63;62.35
40596;BME280;26304;48.794;9.820;2023-09-08T11:29:44;96613.81;;;21.69;62.15
40596;BME280;26304;48.794;9.820;2023-09-08T11:32:08;96623.66;;;21.72;62.36
40596;BME280;26304;48.794;9.820;2023-09-08T11:34:31;96619.09;;;21.73;62.55
40596;BME280;26304;48.794;9.820;2023-09-08T11:36:53;96624.72;;;21.82;62.29
40596;BME280;26304;48.794;9.820;2023-09-08T11:39:15;96621.69;;;21.84;62.17
40596;BME280;26304;48.794;9.820;2023-09-08T11:41:38;96620.59;;;21.77;62.54
40596;BME280;26304;48.794;9.820;2023-09-08T11:44:00;96617.59;;;21.75;62.87
40596;BME280;26304;48.794;9.820;2023-09-08T11:46:24;96616.06;;;21.74;63.04
40596;BME280;26304;48.794;9.820;2023-09-08T11:48:48;96622.50;;;21.73;62.78
40596;BME280;26304;48.794;9.820;2023-09-08T11:51:10;96622.13;;;21.75;62.76
40596;BME280;26304;48.794;9.820;2023-09-08T11:53:33;96609.28;;;21.73;62.87
40596;BME280;26304;48.794;9.820;2023-09-08T11:55:55;96608.91;;;21.75;62.71
40596;BME280;26304;48.794;9.820;2023-09-08T11:58:19;96609.25;;;21.77;62.78
40596;BME280;26304;48.794;9.820;2023-09-08T12:00:43;96614.16;;;21.79;62.80
40596;BME280;26304;48.794;9.820;2023-09-08T12:03:10;96616.06;;;21.78;62.74
40596;BME280;26304;48.794;9.820;2023-09-08T12:05:35;96611.53;;;21.79;62.48
40596;BME280;26304;48.794;9.820;2023-09-08T12:07:58;96609.25;;;21.81;62.67
40596;BME280;26304;48.794;9.820;2023-09-08T12:10:21;96609.25;;;21.81;62.34
40596;BME280;26304;48.794;9.820;2023-09-08T12:12:48;96608.13;;;21.82;62.56
40596;BME280;26304;48.794;9.820;2023-09-08T12:15:30;96605.03;;;21.90;62.50
40596;BME280;26304;48.794;9.820;2023-09-08T12:17:54;96605.75;;;21.98;63.07
40596;BME280;26304;48.794;9.820;2023-09-08T12:20:17;96601.19;;;22.02;62.73
40596;BME280;26304;48.794;9.820;2023-09-08T12:22:48;96595.50;;;22.07;63.39
40596;BME280;26304;48.794;9.820;2023-09-08T12:25:11;96605.34;;;22.07;63.14
40596;BME280;26304;48.794;9.820;2023-09-08T12:27:36;96595.84;;;22.13;62.80
40596;BME280;26304;48.794;9.820;2023-09-08T12:29:59;96597.31;;;22.18;62.27
40596;BME280;26304;48.794;9.820;2023-09-08T12:32:23;96597.69;;;22.20;62.41
40596;BME280;26304;48.794;9.820;2023-09-08T12:34:46;96598.06;;;22.22;62.31
40596;BME280;26304;48.794;9.820;2023-09-08T12:37:09;96593.13;;;22.24;62.73
40596;BME280;26304;48.794;9.820;2023-09-08T12:39:34;96599.16;;;22.28;62.52
40596;BME280;26304;48.794;9.820;2023-09-08T12:41:57;96602.53;;;22.28;62.60
40596;BME280;26304;48.794;9.820;2023-09-08T12:44:19;96593.09;;;22.31;62.70